Terminal Aerodrome Forecast
Issued by NWS Amarillo, TX

Home | Current Version | Previous Version | Text Only | Print | Product List | Glossary On
Versions: 1 2 3 4 5 6 7 8 9 10 11 12 13 14 15 16
311
FTUS44 KAMA 110520
TAFDHT
TAF
KDHT 110520Z 1106/1206 22014G20KT P6SM OVC200 WS010/23050KT
     FM111100 26014G20KT P6SM OVC150
     FM120100 07009KT P6SM SCT250=

USA.gov is the U.S. government's official web portal to all federal, state and local government web resources and services.